createdAt,value
2024-01-05T00:00:43.259Z,9.25
2024-01-05T00:03:10.213Z,8.77
2024-01-05T00:05:37.148Z,7.05
2024-01-05T00:08:04.827Z,8.68
2024-01-05T00:10:32.895Z,10.63
2024-01-05T00:13:01.171Z,8.73
2024-01-05T00:15:33.397Z,7.80
2024-01-05T00:18:00.920Z,6.45
2024-01-05T00:20:29.151Z,8.02
2024-01-05T00:22:56.023Z,7.63
2024-01-05T00:25:23.116Z,11.85
2024-01-05T00:27:53.138Z,11.57
2024-01-05T00:30:20.596Z,6.68
2024-01-05T00:32:47.626Z,8.60
2024-01-05T00:35:14.550Z,9.20
2024-01-05T00:37:41.650Z,7.65
2024-01-05T00:40:09.373Z,10.73
2024-01-05T00:42:37.679Z,9.80
2024-01-05T00:45:12.565Z,7.47
2024-01-05T00:47:39.781Z,7.95
2024-01-05T00:50:07.520Z,14.18
2024-01-05T00:52:34.312Z,6.50
2024-01-05T00:55:01.201Z,9.60
2024-01-05T00:57:28.832Z,8.40
2024-01-05T00:59:55.617Z,9.18
2024-01-05T01:02:22.409Z,8.02
2024-01-05T01:04:49.583Z,5.25
2024-01-05T01:07:16.945Z,9.27
2024-01-05T01:09:48.371Z,7.53
2024-01-05T01:12:17.581Z,12.10
2024-01-05T01:14:48.417Z,10.38
2024-01-05T01:17:16.820Z,9.37
2024-01-05T01:19:44.273Z,10.07
2024-01-05T01:22:11.929Z,7.75
2024-01-05T01:24:39.296Z,9.27
2024-01-05T01:27:06.833Z,8.73
2024-01-05T01:29:33.601Z,8.05
2024-01-05T01:32:00.572Z,9.63
2024-01-05T01:34:27.630Z,8.52
2024-01-05T01:36:55.448Z,8.20
2024-01-05T01:39:22.309Z,8.45
2024-01-05T01:41:51.561Z,10.60
2024-01-05T01:44:23.367Z,7.75
2024-01-05T01:46:59.166Z,9.35
2024-01-05T01:49:34.748Z,6.93
2024-01-05T01:52:02.470Z,7.43
2024-01-05T01:54:34.455Z,8.52
2024-01-05T01:57:03.800Z,10.60
2024-01-05T01:59:30.884Z,6.57
2024-01-05T02:01:58.673Z,8.55
2024-01-05T02:04:27.633Z,6.55
2024-01-05T02:06:55.585Z,7.35
2024-01-05T02:09:22.967Z,10.43
2024-01-05T02:11:51.908Z,6.38
2024-01-05T02:16:53.185Z,8.35
2024-01-05T02:19:20.336Z,10.00
2024-01-05T02:21:51.158Z,7.55
2024-01-05T02:24:18.138Z,8.13
2024-01-05T02:26:45.286Z,7.90
2024-01-05T02:29:12.603Z,7.38
2024-01-05T02:31:43.017Z,10.43
2024-01-05T02:34:10.153Z,11.32
2024-01-05T02:36:37.164Z,7.18
2024-01-05T02:39:03.974Z,8.80
2024-01-05T02:41:37.605Z,7.57
2024-01-05T02:44:06.772Z,10.32
2024-01-05T02:46:37.671Z,7.30
2024-01-05T02:49:04.964Z,10.90
2024-01-05T02:51:31.865Z,8.63
2024-01-05T02:53:58.797Z,9.50
2024-01-05T02:56:25.747Z,10.88
2024-01-05T02:58:53.312Z,10.80
2024-01-05T03:01:20.672Z,12.57
2024-01-05T03:03:51.289Z,10.88
2024-01-05T03:06:20.259Z,7.80
2024-01-05T03:08:47.657Z,5.40
2024-01-05T03:11:16.416Z,7.90
2024-01-05T03:13:51.289Z,7.53
2024-01-05T03:16:19.710Z,7.13
2024-01-05T03:18:49.935Z,8.27
2024-01-05T03:21:17.666Z,9.50
2024-01-05T03:23:44.480Z,7.68
2024-01-05T03:26:11.280Z,9.90
2024-01-05T03:28:39.576Z,8.45
2024-01-05T03:31:12.323Z,7.80
2024-01-05T03:33:42.301Z,10.23
2024-01-05T03:36:19.634Z,7.85
2024-01-05T03:38:46.574Z,6.00
2024-01-05T03:41:15.029Z,10.38
2024-01-05T03:43:42.107Z,7.05
2024-01-05T03:46:28.829Z,5.22
2024-01-05T03:48:55.709Z,5.50
2024-01-05T03:51:22.669Z,7.68
2024-01-05T03:53:49.471Z,7.82
2024-01-05T03:56:16.229Z,7.20
2024-01-05T03:58:43.015Z,8.60
2024-01-05T04:01:09.819Z,6.57
2024-01-05T04:03:36.689Z,4.78
2024-01-05T04:06:04.862Z,6.93
2024-01-05T04:08:31.642Z,8.88
2024-01-05T04:10:58.385Z,5.28
2024-01-05T04:13:25.160Z,6.88
2024-01-05T04:15:51.913Z,5.63
2024-01-05T04:18:18.826Z,6.25
2024-01-05T04:20:48.966Z,8.80
2024-01-05T04:23:16.080Z,9.48
2024-01-05T04:25:42.803Z,7.63
2024-01-05T04:28:09.612Z,5.80
2024-01-05T04:30:37.275Z,6.93
2024-01-05T04:33:04.727Z,6.88
2024-01-05T04:35:33.657Z,5.82
2024-01-05T04:38:04.993Z,7.60
2024-01-05T04:40:33.157Z,5.88
2024-01-05T04:43:00.444Z,6.72
2024-01-05T04:45:27.318Z,6.03
2024-01-05T04:47:54.274Z,5.50
2024-01-05T04:50:21.382Z,4.90
2024-01-05T04:52:48.483Z,7.13
2024-01-05T04:55:16.773Z,7.07
2024-01-05T04:57:46.393Z,6.32
2024-01-05T05:00:14.569Z,5.10
2024-01-05T05:02:41.520Z,6.75
2024-01-05T05:05:13.963Z,7.35
2024-01-05T05:07:45.937Z,3.42
2024-01-05T05:10:16.607Z,4.10
2024-01-05T05:12:43.638Z,6.13
2024-01-05T05:15:11.674Z,7.38
2024-01-05T05:17:38.445Z,6.72
2024-01-05T05:20:05.634Z,5.40
2024-01-05T05:22:32.547Z,6.53
2024-01-05T05:24:59.575Z,4.00
2024-01-05T05:27:26.404Z,4.78
2024-01-05T05:29:53.265Z,6.38
2024-01-05T05:32:20.277Z,6.55
2024-01-05T05:34:49.273Z,4.65
2024-01-05T05:37:23.524Z,6.03
2024-01-05T05:39:51.860Z,5.18
2024-01-05T05:42:19.455Z,4.30
2024-01-05T05:44:46.230Z,3.35
2024-01-05T05:47:16.004Z,3.63
2024-01-05T05:49:42.877Z,5.40
2024-01-05T05:52:09.670Z,5.90
2024-01-05T05:54:36.689Z,4.50
2024-01-05T05:57:07.114Z,5.72
2024-01-05T05:59:33.827Z,6.47
2024-01-05T06:02:00.616Z,5.93
2024-01-05T06:04:27.361Z,6.95
2024-01-05T06:06:56.846Z,7.13
2024-01-05T06:09:27.868Z,8.05
2024-01-05T06:11:55.413Z,7.35
2024-01-05T06:14:22.646Z,8.30
2024-01-05T06:16:49.401Z,6.35
2024-01-05T06:19:16.303Z,5.72
2024-01-05T06:21:43.503Z,4.43
2024-01-05T06:24:10.573Z,6.95
2024-01-05T06:26:37.366Z,9.07
2024-01-05T06:29:04.629Z,5.30
2024-01-05T06:31:31.407Z,7.05
2024-01-05T06:34:01.504Z,7.70
2024-01-05T06:36:32.401Z,6.60
2024-01-05T06:39:02.187Z,7.70
2024-01-05T06:41:29.564Z,6.63
2024-01-05T06:43:56.305Z,8.00
2024-01-05T06:46:23.036Z,8.65
2024-01-05T06:48:50.033Z,7.03
2024-01-05T06:51:17.036Z,9.88
2024-01-05T06:53:43.880Z,9.93
2024-01-05T06:56:12.128Z,8.02
2024-01-05T06:58:39.095Z,9.63
2024-01-05T07:01:06.067Z,9.02
2024-01-05T07:03:33.132Z,9.98
2024-01-05T07:06:04.072Z,8.05
2024-01-05T07:08:36.525Z,8.27
2024-01-05T07:11:09.194Z,9.82
2024-01-05T07:13:36.531Z,9.60
2024-01-05T07:16:03.784Z,6.90
2024-01-05T07:18:30.702Z,9.05
2024-01-05T07:20:57.706Z,6.95
2024-01-05T07:23:24.434Z,8.93
2024-01-05T07:25:51.261Z,8.68
2024-01-05T07:28:18.040Z,8.65
2024-01-05T07:30:44.822Z,8.23
2024-01-05T07:33:11.865Z,4.30
2024-01-05T07:35:45.556Z,5.53
2024-01-05T07:38:14.573Z,8.07
2024-01-05T07:40:43.884Z,6.57
2024-01-05T07:43:13.831Z,7.40
2024-01-05T07:45:40.761Z,7.03
2024-01-05T07:48:07.932Z,9.40
2024-01-05T07:50:36.059Z,6.88
2024-01-05T07:53:03.261Z,5.53
2024-01-05T07:55:30.319Z,5.40
2024-01-05T07:57:57.210Z,6.30
2024-01-05T08:00:24.266Z,5.15
2024-01-05T08:02:51.818Z,9.40
2024-01-05T08:05:19.490Z,6.32
2024-01-05T08:07:46.554Z,5.05
2024-01-05T08:10:17.315Z,3.80
2024-01-05T08:12:46.936Z,6.25
2024-01-05T08:15:19.523Z,5.30
2024-01-05T08:17:47.071Z,5.10
2024-01-05T08:20:13.953Z,5.55
2024-01-05T08:22:40.735Z,8.48
2024-01-05T08:25:07.892Z,5.18
2024-01-05T08:27:34.766Z,5.90
2024-01-05T08:30:01.773Z,5.32
2024-01-05T08:32:28.731Z,6.25
2024-01-05T08:34:55.585Z,5.50
2024-01-05T08:37:22.395Z,6.35
2024-01-05T08:39:49.224Z,8.57
2024-01-05T08:42:16.263Z,5.07
2024-01-05T08:44:52.870Z,5.97
2024-01-05T08:47:26.243Z,7.22
2024-01-05T08:49:53.435Z,7.85
2024-01-05T08:52:20.397Z,5.68
2024-01-05T08:54:48.781Z,7.70
2024-01-05T08:57:17.244Z,7.50
2024-01-05T08:59:46.182Z,9.18
2024-01-05T09:02:13.454Z,6.38
2024-01-05T09:04:40.613Z,8.68
2024-01-05T09:07:07.418Z,7.15
2024-01-05T09:09:34.300Z,7.15
2024-01-05T09:12:03.027Z,4.63
2024-01-05T09:14:29.781Z,7.68
2024-01-05T09:17:02.580Z,5.80
2024-01-05T09:19:39.562Z,5.95
2024-01-05T09:22:09.538Z,5.00
2024-01-05T09:24:40.030Z,5.80
2024-01-05T09:27:07.565Z,5.97
2024-01-05T09:29:34.761Z,5.20
2024-01-05T09:32:02.224Z,4.95
2024-01-05T09:34:29.074Z,8.38
2024-01-05T09:36:55.950Z,6.93
2024-01-05T09:39:22.845Z,5.40
2024-01-05T09:41:50.204Z,6.43
2024-01-05T09:44:17.678Z,4.63
2024-01-05T09:46:45.621Z,6.50
2024-01-05T09:49:15.509Z,4.60
2024-01-05T09:51:43.270Z,5.53
2024-01-05T09:54:10.170Z,5.05
2024-01-05T09:56:38.712Z,5.47
2024-01-05T09:59:06.547Z,7.60
2024-01-05T10:01:35.563Z,6.55
2024-01-05T10:04:03.423Z,4.93
2024-01-05T10:06:31.822Z,4.13
2024-01-05T10:09:00.243Z,3.83
2024-01-05T10:11:43.719Z,5.32
2024-01-05T10:14:15.689Z,5.63
2024-01-05T10:16:42.494Z,5.43
2024-01-05T10:19:17.387Z,4.85
2024-01-05T10:21:46.409Z,5.65
2024-01-05T10:24:27.977Z,7.03
2024-01-05T10:27:05.660Z,6.40
2024-01-05T10:29:34.231Z,6.25
2024-01-05T10:32:19.306Z,6.43
2024-01-05T10:34:50.902Z,5.20
2024-01-05T10:37:20.340Z,7.57
2024-01-05T10:39:48.487Z,4.72
2024-01-05T10:42:36.798Z,4.65
2024-01-05T10:45:04.167Z,3.97
2024-01-05T10:47:31.570Z,5.85
2024-01-05T10:49:59.095Z,5.13
2024-01-05T10:52:33.317Z,5.13
2024-01-05T10:55:04.189Z,5.28
2024-01-05T10:57:31.964Z,5.07
2024-01-05T10:59:58.862Z,6.50
2024-01-05T11:02:39.850Z,4.55
2024-01-05T11:05:10.098Z,4.67
2024-01-05T11:07:44.837Z,6.18
2024-01-05T11:10:12.757Z,3.25
2024-01-05T11:12:55.604Z,5.78
2024-01-05T11:16:01.107Z,5.18
2024-01-05T11:18:39.969Z,7.97
2024-01-05T11:21:11.429Z,4.65
2024-01-05T11:23:40.296Z,5.78
2024-01-05T11:26:07.418Z,4.53
2024-01-05T11:28:35.677Z,4.35
2024-01-05T11:31:03.057Z,3.40
2024-01-05T11:33:49.519Z,4.63
2024-01-05T11:36:50.802Z,5.82
2024-01-05T11:39:48.602Z,4.50
2024-01-05T11:42:36.811Z,4.63
2024-01-05T11:45:10.570Z,5.65
2024-01-05T11:47:44.834Z,3.80
2024-01-05T11:50:32.196Z,4.15
2024-01-05T11:53:23.753Z,3.72
2024-01-05T11:55:52.530Z,5.18
2024-01-05T11:58:32.812Z,5.97
2024-01-05T12:01:01.295Z,5.38
2024-01-05T12:03:57.360Z,3.17
2024-01-05T12:06:27.433Z,4.63
2024-01-05T12:08:54.896Z,2.95
2024-01-05T12:11:21.765Z,3.90
2024-01-05T12:13:48.689Z,5.43
2024-01-05T12:16:15.907Z,4.97
2024-01-05T12:18:45.007Z,5.35
2024-01-05T12:21:18.621Z,6.38
2024-01-05T12:24:00.551Z,4.97
2024-01-05T12:28:57.685Z,3.72
2024-01-05T12:31:25.824Z,3.85
2024-01-05T12:33:53.414Z,4.10
2024-01-05T12:36:29.976Z,2.33
2024-01-05T12:39:09.832Z,3.72
2024-01-05T12:41:37.069Z,4.60
2024-01-05T12:44:09.268Z,4.45
2024-01-05T12:46:44.604Z,5.40
2024-01-05T12:49:22.873Z,5.72
2024-01-05T12:51:52.134Z,3.50
2024-01-05T12:54:19.391Z,3.40
2024-01-05T12:56:46.920Z,2.92
2024-01-05T12:59:24.956Z,4.55
2024-01-05T13:02:01.764Z,2.92
2024-01-05T13:04:37.868Z,5.22
2024-01-05T13:07:09.885Z,5.28
2024-01-05T13:09:36.880Z,3.55
2024-01-05T13:12:04.397Z,5.55
2024-01-05T13:14:31.190Z,5.15
2024-01-05T13:16:58.377Z,4.03
2024-01-05T13:19:25.359Z,3.30
2024-01-05T13:21:52.211Z,3.63
2024-01-05T13:24:19.187Z,3.80
2024-01-05T13:26:47.104Z,5.00
2024-01-05T13:29:14.076Z,4.85
2024-01-05T13:31:40.968Z,3.30
2024-01-05T13:34:08.277Z,3.80
2024-01-05T13:36:35.167Z,3.50
2024-01-05T13:39:02.292Z,3.38
2024-01-05T13:41:29.236Z,5.15
2024-01-05T13:43:56.241Z,3.65
2024-01-05T13:46:23.629Z,3.80
2024-01-05T13:48:50.528Z,4.80
2024-01-05T13:51:19.822Z,3.75
2024-01-05T13:53:53.199Z,3.92
2024-01-05T13:56:24.982Z,4.38
2024-01-05T13:58:53.125Z,4.57
2024-01-05T14:01:20.304Z,5.13
2024-01-05T14:03:47.366Z,4.72
2024-01-05T14:06:14.514Z,11.02
2024-01-05T14:08:41.312Z,4.40
2024-01-05T14:11:16.332Z,3.72
2024-01-05T14:13:43.162Z,5.20
2024-01-05T14:16:10.134Z,5.25
2024-01-05T14:18:38.320Z,4.03
2024-01-05T14:21:05.480Z,3.80
2024-01-05T14:23:32.324Z,8.52
2024-01-05T14:25:59.115Z,4.35
2024-01-05T14:28:26.141Z,3.92
2024-01-05T14:30:53.050Z,8.38
2024-01-05T14:33:20.068Z,3.70
2024-01-05T14:35:47.725Z,3.50
2024-01-05T14:38:14.672Z,4.85
2024-01-05T14:40:41.516Z,3.58
2024-01-05T14:43:08.635Z,5.18
2024-01-05T14:45:35.497Z,4.25
2024-01-05T14:48:02.618Z,3.80
2024-01-05T14:50:30.169Z,5.60
2024-01-05T14:53:04.410Z,4.97
2024-01-05T14:55:37.395Z,3.75
2024-01-05T14:58:05.033Z,4.68
2024-01-05T15:00:31.990Z,4.75
2024-01-05T15:03:00.730Z,3.85
2024-01-05T15:05:28.888Z,4.03
2024-01-05T15:07:55.870Z,4.32
2024-01-05T15:10:23.675Z,5.95
2024-01-05T15:12:53.854Z,6.25
2024-01-05T15:15:21.064Z,3.78
2024-01-05T15:17:48.092Z,5.88
2024-01-05T15:20:15.878Z,7.93
2024-01-05T15:22:42.856Z,6.70
2024-01-05T15:25:12.104Z,4.18
2024-01-05T15:27:39.577Z,4.95
2024-01-05T15:30:07.407Z,3.80
2024-01-05T15:32:34.641Z,5.60
2024-01-05T15:35:01.557Z,5.65
2024-01-05T15:37:29.912Z,5.55
2024-01-05T15:39:57.091Z,5.72
2024-01-05T15:42:24.220Z,4.68
2024-01-05T15:44:51.104Z,4.22
2024-01-05T15:47:20.512Z,4.90
2024-01-05T15:49:48.291Z,4.85
2024-01-05T15:52:15.637Z,5.43
2024-01-05T15:54:42.475Z,5.50
2024-01-05T15:57:09.487Z,4.50
2024-01-05T15:59:36.761Z,5.40
2024-01-05T16:02:04.519Z,5.97
2024-01-05T16:04:33.364Z,4.88
2024-01-05T16:07:00.410Z,5.63
2024-01-05T16:09:27.280Z,6.00
2024-01-05T16:11:54.234Z,6.18
2024-01-05T16:14:21.878Z,3.65
2024-01-05T16:16:49.977Z,5.68
2024-01-05T16:19:16.974Z,5.22
2024-01-05T16:21:45.096Z,4.75
2024-01-05T16:24:12.241Z,5.05
2024-01-05T16:26:39.924Z,5.30
2024-01-05T16:29:06.913Z,5.30
2024-01-05T16:31:35.858Z,4.80
2024-01-05T16:34:06.278Z,5.57
2024-01-05T16:36:38.367Z,9.68
2024-01-05T16:39:07.422Z,6.68
2024-01-05T16:41:34.517Z,5.63
2024-01-05T16:44:01.434Z,4.95
2024-01-05T16:46:31.001Z,3.75
2024-01-05T16:48:58.436Z,5.03
2024-01-05T16:51:27.977Z,4.97
2024-01-05T16:53:56.429Z,6.03
2024-01-05T16:56:26.667Z,4.47
2024-01-05T16:58:55.837Z,6.60
2024-01-05T17:01:26.494Z,4.75
2024-01-05T17:03:56.664Z,4.13
2024-01-05T17:06:23.963Z,6.18
2024-01-05T17:08:53.111Z,7.03
2024-01-05T17:11:23.179Z,5.50
2024-01-05T17:13:50.219Z,5.85
2024-01-05T17:16:17.193Z,6.63
2024-01-05T17:18:45.884Z,10.38
2024-01-05T17:21:14.190Z,11.82
2024-01-05T17:23:43.153Z,10.32
2024-01-05T17:26:10.225Z,8.50
2024-01-05T17:28:37.132Z,8.93
2024-01-05T17:31:04.862Z,7.65
2024-01-05T17:33:31.842Z,7.68
2024-01-05T17:35:59.022Z,8.57
2024-01-05T17:38:26.345Z,8.73
2024-01-05T17:40:53.604Z,8.07
2024-01-05T17:43:23.441Z,7.80
2024-01-05T17:45:50.460Z,10.23
2024-01-05T17:48:17.590Z,7.93
2024-01-05T17:50:45.179Z,7.78
2024-01-05T17:53:12.121Z,6.55
2024-01-05T17:55:38.998Z,6.78
2024-01-05T17:58:06.394Z,6.57
2024-01-05T18:00:33.954Z,5.63
2024-01-05T18:03:00.884Z,6.53
2024-01-05T18:05:27.758Z,4.82
2024-01-05T18:07:57.295Z,5.30
2024-01-05T18:10:24.274Z,4.97
2024-01-05T18:12:51.186Z,6.05
2024-01-05T18:15:18.078Z,4.70
2024-01-05T18:17:47.383Z,5.70
2024-01-05T18:20:14.481Z,6.78
2024-01-05T18:22:41.981Z,5.35
2024-01-05T18:25:09.231Z,4.82
2024-01-05T18:27:49.019Z,6.00
2024-01-05T18:30:18.498Z,4.55
2024-01-05T18:32:46.004Z,5.05
2024-01-05T18:35:13.163Z,5.10
2024-01-05T18:37:40.250Z,3.10
2024-01-05T18:40:08.504Z,5.28
2024-01-05T18:42:36.034Z,5.28
2024-01-05T18:45:03.224Z,3.75
2024-01-05T18:47:30.083Z,4.13
2024-01-05T18:49:57.269Z,3.78
2024-01-05T18:52:24.802Z,6.18
2024-01-05T18:54:52.092Z,3.75
2024-01-05T18:57:19.377Z,3.30
2024-01-05T18:59:46.650Z,5.22
2024-01-05T19:02:13.811Z,3.45
2024-01-05T19:04:43.554Z,5.28
2024-01-05T19:07:10.985Z,3.50
2024-01-05T19:09:38.705Z,5.20
2024-01-05T19:12:08.227Z,5.13
2024-01-05T19:14:35.775Z,5.32
2024-01-05T19:17:03.325Z,4.88
2024-01-05T19:19:30.408Z,5.72
2024-01-05T19:21:58.062Z,5.40
2024-01-05T19:24:27.288Z,8.90
2024-01-05T19:26:54.408Z,5.78
2024-01-05T19:29:21.785Z,5.15
2024-01-05T19:31:49.065Z,6.05
2024-01-05T19:34:16.039Z,6.88
2024-01-05T19:36:46.660Z,3.95
2024-01-05T19:39:14.175Z,5.47
2024-01-05T19:41:50.421Z,4.70
2024-01-05T19:44:18.228Z,6.22
2024-01-05T19:46:45.802Z,5.13
2024-01-05T19:49:14.337Z,14.15
2024-01-05T19:51:49.322Z,17.52
2024-01-05T19:54:20.583Z,13.85
2024-01-05T19:56:48.955Z,20.90
2024-01-05T19:59:16.106Z,12.68
2024-01-05T20:01:46.666Z,12.00
2024-01-05T20:04:14.618Z,10.90
2024-01-05T20:06:41.855Z,8.10
2024-01-05T20:09:12.188Z,10.13
2024-01-05T20:11:39.203Z,8.85
2024-01-05T20:14:07.183Z,11.98
2024-01-05T20:16:36.255Z,12.63
2024-01-05T20:19:04.861Z,13.20
2024-01-05T20:21:33.398Z,11.32
2024-01-05T20:24:04.441Z,12.90
2024-01-05T20:26:34.389Z,15.38
2024-01-05T20:29:04.729Z,15.15
2024-01-05T20:31:34.814Z,11.40
2024-01-05T20:34:02.863Z,11.95
2024-01-05T20:36:30.015Z,12.32
2024-01-05T20:39:05.188Z,11.40
2024-01-05T20:41:32.533Z,13.77
2024-01-05T20:43:59.594Z,13.13
2024-01-05T20:53:14.045Z,14.52
2024-01-05T20:55:51.318Z,18.75
2024-01-05T20:58:21.206Z,16.13
2024-01-05T21:00:51.826Z,14.07
2024-01-05T21:06:59.735Z,12.70
2024-01-05T21:09:34.012Z,11.75
2024-01-05T21:12:01.245Z,10.63
2024-01-05T21:14:29.773Z,10.00
2024-01-05T21:16:56.847Z,10.00
2024-01-05T21:19:23.860Z,13.48
2024-01-05T21:21:53.018Z,7.18
2024-01-05T21:24:19.857Z,6.55
2024-01-05T21:26:46.833Z,5.60
2024-01-05T21:29:28.008Z,6.28
2024-01-05T21:31:56.749Z,8.10
2024-01-05T21:34:26.643Z,6.32
2024-01-05T21:40:42.770Z,7.05
2024-01-05T21:43:10.987Z,5.88
2024-01-05T21:45:43.136Z,6.03
2024-01-05T21:48:48.275Z,6.38
2024-01-05T21:51:26.758Z,5.72
2024-01-05T21:54:31.788Z,6.47
2024-01-05T21:57:18.787Z,6.03
2024-01-05T21:59:53.996Z,6.88
2024-01-05T22:02:23.325Z,4.88
2024-01-05T22:04:55.990Z,8.93
2024-01-05T22:07:34.112Z,6.45
2024-01-05T22:10:03.392Z,5.85
2024-01-05T22:12:38.548Z,7.95
2024-01-05T22:15:57.928Z,7.35
2024-01-05T22:18:38.449Z,9.60
2024-01-05T22:21:42.708Z,8.07
2024-01-05T22:24:28.158Z,10.45
2024-01-05T22:26:55.218Z,10.82
2024-01-05T22:29:49.583Z,8.00
2024-01-05T22:32:31.875Z,7.80
2024-01-05T22:35:07.910Z,7.32
2024-01-05T22:37:46.955Z,7.22
2024-01-05T22:40:16.945Z,8.48
2024-01-05T22:42:44.040Z,7.32
2024-01-05T22:45:12.145Z,9.23
2024-01-05T22:47:40.226Z,8.32
2024-01-05T22:50:07.619Z,7.75
2024-01-05T22:52:59.596Z,7.70
2024-01-05T22:55:27.260Z,8.45
2024-01-05T22:58:01.284Z,7.82
2024-01-05T23:00:41.022Z,12.25
2024-01-05T23:03:55.549Z,8.82
2024-01-05T23:06:46.274Z,8.23
2024-01-05T23:09:56.222Z,6.35
2024-01-05T23:14:58.065Z,7.93
2024-01-05T23:17:27.862Z,7.93
2024-01-05T23:20:02.671Z,7.53
2024-01-05T23:22:33.571Z,8.10
2024-01-05T23:25:00.769Z,9.50
2024-01-05T23:27:27.865Z,8.07
2024-01-05T23:29:54.860Z,8.32
2024-01-05T23:32:22.176Z,9.20
2024-01-05T23:34:54.319Z,10.00
2024-01-05T23:37:25.258Z,10.85
2024-01-05T23:39:52.339Z,9.27
2024-01-05T23:42:28.168Z,7.65
2024-01-05T23:44:55.286Z,9.95
2024-01-05T23:47:22.295Z,11.10
2024-01-05T23:49:49.431Z,8.77
2024-01-05T23:52:23.818Z,9.80
2024-01-05T23:55:01.122Z,9.52
2024-01-05T23:57:35.630Z,9.32
